CES575 ZSPD-RJTT
Flight info
| Callsign | CES575 |
|---|---|
| Flight time | N/A |
| Altitude | 33000 |
| Route | LAM81D LAMEN/N0501F330 A593 SADLI Y590 BEDAR Y591 FUE Y23 ARTIC Y71 XAC |
| Aircraft | B77W/H-SDE1E2E3FGHIJ2J3J4J5M1RWXY/LB1D1 |
Departure
| Time | N/A |
|---|---|
| Airport | Shanghai Pudong International Airport (ZSPD) |
Arrival
| Time | 2026-05-06 10:42 |
|---|---|
| Airport | Tokyo Haneda International Airport (RJTT) |
| Time | Latitude | Longitude | Altitude | Speed | Heading |
|---|---|---|---|---|---|
| 2026-05-06 09:09 | 32.08699 | 127.24781 | 33047 ft | 494 kts | 62° |
| 2026-05-06 09:10 | 32.11523 | 127.32167 | 33045 ft | 494 kts | 62° |
| 2026-05-06 09:10 | 32.14297 | 127.39534 | 33047 ft | 494 kts | 63° |
| 2026-05-06 09:11 | 32.17079 | 127.46958 | 33063 ft | 494 kts | 63° |
| 2026-05-06 09:11 | 32.19852 | 127.54376 | 33060 ft | 493 kts | 63° |
| 2026-05-06 09:12 | 32.22619 | 127.61791 | 33060 ft | 493 kts | 63° |
| 2026-05-06 09:12 | 32.25383 | 127.69214 | 33061 ft | 493 kts | 63° |
| 2026-05-06 09:13 | 32.28126 | 127.76593 | 33064 ft | 492 kts | 63° |
| 2026-05-06 09:13 | 32.30866 | 127.83985 | 33061 ft | 491 kts | 63° |
| 2026-05-06 09:14 | 32.33610 | 127.91399 | 33057 ft | 492 kts | 63° |
| 2026-05-06 09:14 | 32.36347 | 127.98810 | 33071 ft | 491 kts | 63° |
| 2026-05-06 09:15 | 32.39073 | 128.06211 | 33062 ft | 490 kts | 63° |
| 2026-05-06 09:15 | 32.41787 | 128.13597 | 33058 ft | 488 kts | 63° |
| 2026-05-06 09:16 | 32.44488 | 128.20959 | 33073 ft | 487 kts | 63° |
| 2026-05-06 09:16 | 32.47183 | 128.28323 | 33072 ft | 487 kts | 63° |
| 2026-05-06 09:17 | 32.49854 | 128.35637 | 33068 ft | 487 kts | 64° |
| 2026-05-06 09:17 | 32.52540 | 128.43007 | 33066 ft | 487 kts | 63° |
| 2026-05-06 09:18 | 32.55227 | 128.50398 | 33067 ft | 488 kts | 63° |
| 2026-05-06 09:18 | 32.57910 | 128.57792 | 33057 ft | 489 kts | 63° |
| 2026-05-06 09:19 | 32.60594 | 128.65209 | 33058 ft | 489 kts | 64° |
| 2026-05-06 09:19 | 32.63273 | 128.72627 | 33056 ft | 489 kts | 64° |
| 2026-05-06 09:20 | 32.65949 | 128.80056 | 33052 ft | 488 kts | 64° |
| 2026-05-06 09:20 | 32.68047 | 128.87753 | 33048 ft | 492 kts | 73° |
| 2026-05-06 09:21 | 32.69613 | 128.95668 | 33049 ft | 493 kts | 74° |
| 2026-05-06 09:21 | 32.71184 | 129.03599 | 33065 ft | 493 kts | 73° |
| 2026-05-06 09:22 | 32.72774 | 129.11462 | 33066 ft | 493 kts | 73° |
| 2026-05-06 09:22 | 32.74386 | 129.19395 | 33065 ft | 494 kts | 73° |
| 2026-05-06 09:23 | 32.75992 | 129.27332 | 33072 ft | 494 kts | 73° |
| 2026-05-06 09:23 | 32.77593 | 129.35282 | 33071 ft | 495 kts | 73° |
| 2026-05-06 09:24 | 32.79197 | 129.43279 | 33079 ft | 499 kts | 74° |
| 2026-05-06 09:24 | 32.80807 | 129.51330 | 33078 ft | 501 kts | 74° |
| 2026-05-06 09:25 | 32.82404 | 129.59342 | 33061 ft | 502 kts | 75° |
| 2026-05-06 09:25 | 32.84036 | 129.67559 | 33070 ft | 516 kts | 75° |
| 2026-05-06 09:26 | 32.85669 | 129.75860 | 33061 ft | 514 kts | 75° |
| 2026-05-06 09:26 | 32.86467 | 129.79952 | 33037 ft | 500 kts | 75° |
| 2026-05-06 09:26 | 32.87248 | 129.83965 | 33036 ft | 501 kts | 76° |
| 2026-05-06 09:27 | 32.88842 | 129.92179 | 33061 ft | 515 kts | 76° |
| 2026-05-06 09:27 | 32.90448 | 130.00483 | 33042 ft | 514 kts | 76° |
| 2026-05-06 09:28 | 32.92057 | 130.08822 | 33056 ft | 525 kts | 77° |
| 2026-05-06 09:28 | 32.93675 | 130.17266 | 33040 ft | 517 kts | 76° |
| 2026-05-06 09:29 | 32.95257 | 130.25521 | 33047 ft | 510 kts | 76° |
| 2026-05-06 09:29 | 32.96861 | 130.33919 | 33066 ft | 530 kts | 77° |
| 2026-05-06 09:30 | 32.98506 | 130.42580 | 33047 ft | 537 kts | 77° |
| 2026-05-06 09:30 | 33.00133 | 130.51178 | 33044 ft | 535 kts | 78° |
| 2026-05-06 09:31 | 33.01775 | 130.59895 | 33056 ft | 542 kts | 78° |
| 2026-05-06 09:31 | 33.03416 | 130.68647 | 33052 ft | 540 kts | 78° |
| 2026-05-06 09:32 | 33.05048 | 130.77376 | 33054 ft | 539 kts | 78° |
| 2026-05-06 09:32 | 33.06661 | 130.86053 | 33056 ft | 527 kts | 77° |
| 2026-05-06 09:33 | 33.08223 | 130.94468 | 33046 ft | 524 kts | 78° |
| 2026-05-06 09:33 | 33.09819 | 131.03116 | 33078 ft | 543 kts | 78° |
| 2026-05-06 09:34 | 33.11441 | 131.11942 | 33076 ft | 543 kts | 78° |
| 2026-05-06 09:34 | 33.13066 | 131.20822 | 33080 ft | 548 kts | 79° |
| 2026-05-06 09:35 | 33.14676 | 131.29648 | 33088 ft | 546 kts | 79° |
| 2026-05-06 09:35 | 33.16285 | 131.38497 | 33063 ft | 551 kts | 81° |
| 2026-05-06 09:36 | 33.17929 | 131.47611 | 33099 ft | 569 kts | 81° |
| 2026-05-06 09:36 | 33.19593 | 131.56859 | 33056 ft | 568 kts | 81° |
| 2026-05-06 09:37 | 33.21247 | 131.66069 | 33086 ft | 567 kts | 81° |
| 2026-05-06 09:37 | 33.23488 | 131.75136 | 33076 ft | 571 kts | 70° |
| 2026-05-06 09:38 | 33.26491 | 131.83771 | 33100 ft | 572 kts | 69° |
| 2026-05-06 09:38 | 33.29557 | 131.92555 | 33076 ft | 573 kts | 69° |
| 2026-05-06 09:39 | 33.32566 | 132.01403 | 33064 ft | 574 kts | 70° |
| 2026-05-06 09:39 | 33.35522 | 132.10201 | 33117 ft | 575 kts | 70° |
| 2026-05-06 09:40 | 33.38507 | 132.19095 | 33087 ft | 576 kts | 70° |
| 2026-05-06 09:40 | 33.42979 | 132.32439 | 33096 ft | 576 kts | 71° |
| 2026-05-06 09:41 | 33.45967 | 132.41370 | 33062 ft | 577 kts | 71° |
| 2026-05-06 09:41 | 33.48951 | 132.50294 | 33098 ft | 577 kts | 71° |
| 2026-05-06 09:42 | 33.51934 | 132.59225 | 33105 ft | 577 kts | 71° |
| 2026-05-06 09:42 | 33.54908 | 132.68165 | 33117 ft | 577 kts | 71° |
| 2026-05-06 09:43 | 33.57869 | 132.77105 | 33083 ft | 576 kts | 71° |
| 2026-05-06 09:43 | 33.60799 | 132.85968 | 33129 ft | 576 kts | 71° |
| 2026-05-06 09:44 | 33.63754 | 132.94927 | 33125 ft | 579 kts | 71° |
| 2026-05-06 09:44 | 33.66271 | 133.04082 | 33112 ft | 577 kts | 78° |
| 2026-05-06 09:45 | 33.68062 | 133.11786 | 33140 ft | 575 kts | 78° |
| 2026-05-06 09:45 | 33.70230 | 133.21049 | 33130 ft | 577 kts | 78° |
| 2026-05-06 09:46 | 33.72440 | 133.30333 | 33109 ft | 579 kts | 77° |
| 2026-05-06 09:46 | 33.74655 | 133.39624 | 33121 ft | 579 kts | 78° |
| 2026-05-06 09:47 | 33.76865 | 133.48936 | 33115 ft | 579 kts | 78° |
| 2026-05-06 09:47 | 33.79056 | 133.58244 | 33147 ft | 577 kts | 78° |
| 2026-05-06 09:48 | 33.81243 | 133.67488 | 33091 ft | 579 kts | 78° |
| 2026-05-06 09:48 | 33.83441 | 133.76791 | 33132 ft | 579 kts | 77° |
| 2026-05-06 09:49 | 33.85636 | 133.86102 | 33099 ft | 578 kts | 78° |
| 2026-05-06 09:49 | 33.87806 | 133.95382 | 33149 ft | 575 kts | 78° |
| 2026-05-06 09:50 | 33.89966 | 134.04653 | 33126 ft | 575 kts | 78° |
| 2026-05-06 09:50 | 33.92120 | 134.13944 | 33163 ft | 578 kts | 78° |
| 2026-05-06 09:51 | 33.94278 | 134.23274 | 33141 ft | 579 kts | 78° |
| 2026-05-06 09:51 | 33.96436 | 134.32626 | 33125 ft | 578 kts | 78° |
| 2026-05-06 09:52 | 33.98574 | 134.41945 | 33133 ft | 577 kts | 78° |
| 2026-05-06 09:52 | 34.00666 | 134.51089 | 33125 ft | 573 kts | 79° |
| 2026-05-06 09:53 | 34.02784 | 134.60386 | 33137 ft | 573 kts | 79° |
| 2026-05-06 09:53 | 34.04881 | 134.69634 | 33125 ft | 571 kts | 79° |
| 2026-05-06 09:54 | 34.06970 | 134.78882 | 33129 ft | 570 kts | 79° |
| 2026-05-06 09:54 | 34.09051 | 134.88134 | 33137 ft | 573 kts | 79° |
| 2026-05-06 09:55 | 34.11139 | 134.97437 | 33131 ft | 576 kts | 79° |
| 2026-05-06 09:55 | 34.13230 | 135.06778 | 33123 ft | 576 kts | 80° |
| 2026-05-06 09:56 | 34.15296 | 135.16035 | 33114 ft | 575 kts | 80° |
| 2026-05-06 09:56 | 34.17366 | 135.25349 | 33112 ft | 573 kts | 80° |
| 2026-05-06 09:57 | 34.19421 | 135.34632 | 33114 ft | 571 kts | 80° |
| 2026-05-06 09:57 | 34.21453 | 135.43850 | 33113 ft | 571 kts | 80° |
| 2026-05-06 09:58 | 34.23499 | 135.53146 | 33114 ft | 572 kts | 80° |
| 2026-05-06 09:58 | 34.25527 | 135.62437 | 33111 ft | 571 kts | 80° |
| 2026-05-06 09:59 | 34.27541 | 135.71713 | 33124 ft | 570 kts | 80° |
| 2026-05-06 09:59 | 34.29554 | 135.80971 | 33136 ft | 569 kts | 80° |
| 2026-05-06 10:00 | 34.31560 | 135.90236 | 33149 ft | 569 kts | 80° |
| 2026-05-06 10:00 | 34.33561 | 135.99505 | 33152 ft | 570 kts | 80° |
| 2026-05-06 10:01 | 34.35543 | 136.08770 | 33137 ft | 571 kts | 80° |
| 2026-05-06 10:01 | 34.37536 | 136.18106 | 33143 ft | 573 kts | 80° |
| 2026-05-06 10:02 | 34.39522 | 136.27435 | 33142 ft | 572 kts | 80° |
| 2026-05-06 10:02 | 34.41492 | 136.36764 | 33121 ft | 572 kts | 81° |
| 2026-05-06 10:03 | 34.43454 | 136.46086 | 33143 ft | 569 kts | 81° |
| 2026-05-06 10:03 | 34.45380 | 136.55324 | 33138 ft | 569 kts | 81° |
| 2026-05-06 10:04 | 34.47333 | 136.64671 | 33137 ft | 570 kts | 80° |
| 2026-05-06 10:04 | 34.49263 | 136.73936 | 33143 ft | 570 kts | 80° |
| 2026-05-06 10:05 | 34.51196 | 136.83274 | 33138 ft | 571 kts | 80° |
| 2026-05-06 10:05 | 34.53091 | 136.92627 | 33138 ft | 570 kts | 83° |
| 2026-05-06 10:06 | 34.54084 | 137.02123 | 33139 ft | 561 kts | 95° |
| 2026-05-06 10:06 | 34.54091 | 137.11581 | 33148 ft | 561 kts | 97° |
| 2026-05-06 10:07 | 34.54086 | 137.21008 | 33144 ft | 563 kts | 96° |
| 2026-05-06 10:07 | 34.54139 | 137.30531 | 33139 ft | 564 kts | 96° |
| 2026-05-06 10:08 | 34.54206 | 137.40065 | 33145 ft | 565 kts | 96° |
| 2026-05-06 10:08 | 34.54257 | 137.49607 | 33141 ft | 566 kts | 96° |
| 2026-05-06 10:09 | 34.54299 | 137.59136 | 33139 ft | 564 kts | 96° |
| 2026-05-06 10:09 | 34.54319 | 137.68661 | 33140 ft | 564 kts | 96° |
| 2026-05-06 10:10 | 34.54320 | 137.78109 | 33154 ft | 564 kts | 96° |
| 2026-05-06 10:10 | 34.54316 | 137.87627 | 33158 ft | 565 kts | 96° |
| 2026-05-06 10:11 | 34.54309 | 137.97171 | 33158 ft | 565 kts | 96° |
| 2026-05-06 10:11 | 34.54295 | 138.06695 | 33152 ft | 564 kts | 96° |
| 2026-05-06 10:12 | 34.54275 | 138.16137 | 33147 ft | 564 kts | 96° |
| 2026-05-06 10:12 | 34.54249 | 138.25650 | 33153 ft | 563 kts | 96° |
| 2026-05-06 10:13 | 34.54569 | 138.35159 | 33154 ft | 570 kts | 85° |
| 2026-05-06 10:13 | 34.56613 | 138.44508 | 33170 ft | 576 kts | 71° |
| 2026-05-06 10:14 | 34.60167 | 138.53247 | 33180 ft | 577 kts | 63° |
| 2026-05-06 10:14 | 34.63901 | 138.61857 | 33172 ft | 576 kts | 64° |
| 2026-05-06 10:15 | 34.67477 | 138.70475 | 33181 ft | 576 kts | 64° |
| 2026-05-06 10:15 | 34.70428 | 138.79485 | 33184 ft | 572 kts | 78° |
| 2026-05-06 10:16 | 34.71694 | 138.88965 | 33159 ft | 563 kts | 92° |
| 2026-05-06 10:16 | 34.71518 | 138.98395 | 33171 ft | 557 kts | 96° |
| 2026-05-06 10:17 | 34.71421 | 139.07813 | 33178 ft | 557 kts | 95° |
| 2026-05-06 10:17 | 34.71381 | 139.17335 | 33185 ft | 569 kts | 95° |
| 2026-05-06 10:18 | 34.71323 | 139.26894 | 33172 ft | 567 kts | 95° |
| 2026-05-06 10:18 | 34.71249 | 139.36467 | 33140 ft | 562 kts | 94° |
| 2026-05-06 10:19 | 34.71630 | 139.41183 | 32874 ft | 562 kts | 79° |
| 2026-05-06 10:19 | 34.72914 | 139.45631 | 32360 ft | 557 kts | 62° |
| 2026-05-06 10:19 | 34.74918 | 139.49660 | 31318 ft | 558 kts | 55° |
| 2026-05-06 10:19 | 34.77036 | 139.53664 | 30138 ft | 567 kts | 55° |
| 2026-05-06 10:20 | 34.79153 | 139.57740 | 29088 ft | 569 kts | 57° |
| 2026-05-06 10:20 | 34.81205 | 139.61825 | 28276 ft | 564 kts | 58° |
| 2026-05-06 10:20 | 34.83200 | 139.65909 | 27643 ft | 557 kts | 59° |
| 2026-05-06 10:20 | 34.85146 | 139.69945 | 27050 ft | 549 kts | 59° |
| 2026-05-06 10:21 | 34.87073 | 139.73935 | 26424 ft | 542 kts | 59° |
| 2026-05-06 10:21 | 34.88981 | 139.77865 | 25751 ft | 537 kts | 58° |
| 2026-05-06 10:21 | 34.91195 | 139.81472 | 24845 ft | 531 kts | 41° |
| 2026-05-06 10:21 | 34.94128 | 139.84135 | 24007 ft | 522 kts | 23° |
| 2026-05-06 10:22 | 34.97435 | 139.85763 | 23290 ft | 506 kts | 8° |
| 2026-05-06 10:22 | 35.00829 | 139.86538 | 22768 ft | 487 kts | 358° |
| 2026-05-06 10:22 | 35.04139 | 139.86623 | 22242 ft | 465 kts | 346° |
| 2026-05-06 10:22 | 35.07201 | 139.85832 | 21599 ft | 440 kts | 334° |
| 2026-05-06 10:23 | 35.10098 | 139.84790 | 20889 ft | 439 kts | 334° |
| 2026-05-06 10:23 | 35.13032 | 139.83776 | 20373 ft | 433 kts | 336° |
| 2026-05-06 10:23 | 35.15908 | 139.82836 | 19951 ft | 425 kts | 336° |
| 2026-05-06 10:23 | 35.18756 | 139.81930 | 19296 ft | 422 kts | 337° |
| 2026-05-06 10:24 | 35.21612 | 139.81019 | 18185 ft | 429 kts | 338° |
| 2026-05-06 10:24 | 35.24513 | 139.80095 | 16902 ft | 425 kts | 339° |
| 2026-05-06 10:24 | 35.27330 | 139.79213 | 15659 ft | 410 kts | 340° |
| 2026-05-06 10:24 | 35.30139 | 139.78850 | 14470 ft | 409 kts | 1° |
| 2026-05-06 10:25 | 35.32893 | 139.79655 | 13243 ft | 405 kts | 19° |
| 2026-05-06 10:25 | 35.35339 | 139.81340 | 12112 ft | 404 kts | 35° |
| 2026-05-06 10:25 | 35.37471 | 139.83509 | 11470 ft | 391 kts | 39° |
| 2026-05-06 10:25 | 35.39475 | 139.85578 | 11087 ft | 370 kts | 38° |
| 2026-05-06 10:26 | 35.41447 | 139.87558 | 10969 ft | 354 kts | 37° |
| 2026-05-06 10:26 | 35.43299 | 139.89397 | 10877 ft | 341 kts | 37° |
| 2026-05-06 10:26 | 35.45042 | 139.91285 | 10809 ft | 328 kts | 43° |
| 2026-05-06 10:26 | 35.46626 | 139.93249 | 10686 ft | 318 kts | 44° |
| 2026-05-06 10:27 | 35.48153 | 139.95166 | 10508 ft | 311 kts | 44° |
| 2026-05-06 10:27 | 35.49662 | 139.97038 | 10201 ft | 309 kts | 44° |
| 2026-05-06 10:27 | 35.51287 | 139.98742 | 9670 ft | 306 kts | 27° |
| 2026-05-06 10:27 | 35.53296 | 139.99481 | 9165 ft | 303 kts | 360° |
| 2026-05-06 10:28 | 35.55343 | 139.99097 | 8673 ft | 297 kts | 335° |
| 2026-05-06 10:28 | 35.57058 | 139.97816 | 8158 ft | 283 kts | 317° |
| 2026-05-06 10:28 | 35.58575 | 139.96338 | 7678 ft | 275 kts | 320° |
| 2026-05-06 10:28 | 35.60099 | 139.94998 | 7178 ft | 268 kts | 321° |
| 2026-05-06 10:29 | 35.61595 | 139.93665 | 6718 ft | 259 kts | 319° |
| 2026-05-06 10:29 | 35.63008 | 139.92360 | 6326 ft | 249 kts | 318° |
| 2026-05-06 10:29 | 35.64355 | 139.91084 | 5910 ft | 241 kts | 318° |
| 2026-05-06 10:29 | 35.65663 | 139.89820 | 5403 ft | 238 kts | 317° |
| 2026-05-06 10:30 | 35.66520 | 139.88984 | 5054 ft | 237 kts | 317° |
| 2026-05-06 10:30 | 35.68178 | 139.87353 | 4381 ft | 236 kts | 317° |
| 2026-05-06 10:30 | 35.69051 | 139.86491 | 4153 ft | 237 kts | 316° |
| 2026-05-06 10:30 | 35.70360 | 139.85188 | 4023 ft | 246 kts | 316° |
| 2026-05-06 10:31 | 35.71686 | 139.83871 | 3989 ft | 242 kts | 316° |
| 2026-05-06 10:31 | 35.73387 | 139.82180 | 4026 ft | 234 kts | 316° |
| 2026-05-06 10:31 | 35.74242 | 139.81327 | 4064 ft | 233 kts | 316° |
| 2026-05-06 10:31 | 35.75500 | 139.80071 | 4061 ft | 229 kts | 316° |
| 2026-05-06 10:32 | 35.76713 | 139.78862 | 3987 ft | 219 kts | 316° |
| 2026-05-06 10:32 | 35.77879 | 139.77698 | 3988 ft | 215 kts | 315° |
| 2026-05-06 10:32 | 35.79051 | 139.76523 | 3998 ft | 218 kts | 316° |
| 2026-05-06 10:32 | 35.80225 | 139.75347 | 3998 ft | 216 kts | 316° |
| 2026-05-06 10:33 | 35.81351 | 139.74215 | 3994 ft | 205 kts | 313° |
| 2026-05-06 10:33 | 35.82058 | 139.72816 | 3990 ft | 183 kts | 278° |
| 2026-05-06 10:33 | 35.82160 | 139.71280 | 4009 ft | 180 kts | 266° |
| 2026-05-06 10:33 | 35.82163 | 139.69763 | 4015 ft | 174 kts | 265° |
| 2026-05-06 10:34 | 35.82157 | 139.68285 | 3996 ft | 177 kts | 265° |
| 2026-05-06 10:34 | 35.82149 | 139.66772 | 4002 ft | 176 kts | 268° |
| 2026-05-06 10:34 | 35.82089 | 139.65295 | 3991 ft | 169 kts | 252° |
| 2026-05-06 10:34 | 35.81460 | 139.64115 | 4003 ft | 170 kts | 219° |
| 2026-05-06 10:35 | 35.80389 | 139.63523 | 3988 ft | 173 kts | 188° |
| 2026-05-06 10:35 | 35.79185 | 139.63529 | 4003 ft | 173 kts | 183° |
| 2026-05-06 10:35 | 35.77991 | 139.63680 | 3996 ft | 175 kts | 166° |
| 2026-05-06 10:35 | 35.76876 | 139.64306 | 4001 ft | 178 kts | 159° |
| 2026-05-06 10:36 | 35.75768 | 139.65010 | 4016 ft | 179 kts | 156° |
| 2026-05-06 10:36 | 35.74700 | 139.65741 | 3997 ft | 177 kts | 155° |
| 2026-05-06 10:36 | 35.73652 | 139.66479 | 3891 ft | 173 kts | 155° |
| 2026-05-06 10:36 | 35.72622 | 139.67214 | 3670 ft | 163 kts | 155° |
| 2026-05-06 10:37 | 35.71662 | 139.67900 | 3460 ft | 157 kts | 154° |
| 2026-05-06 10:37 | 35.70719 | 139.68574 | 3264 ft | 157 kts | 155° |
| 2026-05-06 10:37 | 35.69769 | 139.69251 | 3064 ft | 158 kts | 155° |
| 2026-05-06 10:37 | 35.68824 | 139.69926 | 2854 ft | 156 kts | 155° |
| 2026-05-06 10:38 | 35.67894 | 139.70591 | 2645 ft | 153 kts | 155° |
| 2026-05-06 10:38 | 35.66975 | 139.71248 | 2421 ft | 155 kts | 155° |
| 2026-05-06 10:38 | 35.66042 | 139.71913 | 2216 ft | 154 kts | 154° |
| 2026-05-06 10:38 | 35.65123 | 139.72570 | 2036 ft | 152 kts | 154° |
| 2026-05-06 10:39 | 35.64227 | 139.73210 | 1830 ft | 148 kts | 154° |
| 2026-05-06 10:39 | 35.63332 | 139.73849 | 1628 ft | 150 kts | 154° |
| 2026-05-06 10:39 | 35.62453 | 139.74476 | 1421 ft | 141 kts | 154° |
| 2026-05-06 10:39 | 35.61641 | 139.75057 | 1211 ft | 131 kts | 153° |
| 2026-05-06 10:40 | 35.60884 | 139.75596 | 1047 ft | 123 kts | 153° |
| 2026-05-06 10:40 | 35.60158 | 139.76112 | 906 ft | 122 kts | 153° |
| 2026-05-06 10:40 | 35.59415 | 139.76643 | 743 ft | 126 kts | 153° |
| 2026-05-06 10:40 | 35.58633 | 139.77201 | 583 ft | 133 kts | 152° |
| 2026-05-06 10:41 | 35.57838 | 139.77770 | 403 ft | 129 kts | 152° |
| 2026-05-06 10:41 | 35.57070 | 139.78315 | 245 ft | 124 kts | 150° |
| 2026-05-06 10:41 | 35.56300 | 139.78864 | 95 ft | 130 kts | 152° |
| 2026-05-06 10:41 | 35.55563 | 139.79378 | 29 ft | 111 kts | 149° |
| 2026-05-06 10:42 | 35.55024 | 139.79766 | 29 ft | 65 kts | 150° |
| 2026-05-06 10:42 | 35.54800 | 139.79902 | 29 ft | 30 kts | 156° |
| 2026-05-06 10:42 | 35.54659 | 139.79928 | 28 ft | 14 kts | 178° |
| 2026-05-06 10:42 | 35.54587 | 139.79880 | 28 ft | 12 kts | 236° |
| 2026-05-06 10:43 | 35.54542 | 139.79794 | 28 ft | 12 kts | 233° |
| 2026-05-06 10:43 | 35.54480 | 139.79769 | 29 ft | 10 kts | 171° |
| 2026-05-06 10:43 | 35.54420 | 139.79808 | 29 ft | 10 kts | 147° |
| 2026-05-06 10:44 | 35.54293 | 139.79898 | 29 ft | 9 kts | 152° |
| 2026-05-06 10:44 | 35.54238 | 139.79937 | 29 ft | 7 kts | 149° |
| 2026-05-06 10:44 | 35.54194 | 139.79971 | 29 ft | 8 kts | 148° |
| 2026-05-06 10:44 | 35.54145 | 139.80008 | 29 ft | 7 kts | 148° |
| 2026-05-06 10:45 | 35.54103 | 139.80040 | 29 ft | 8 kts | 150° |
| 2026-05-06 10:45 | 35.54062 | 139.80067 | 29 ft | 7 kts | 151° |
| 2026-05-06 10:45 | 35.54015 | 139.80067 | 29 ft | 7 kts | 212° |
| 2026-05-06 10:45 | 35.53981 | 139.80018 | 29 ft | 8 kts | 235° |